Engadine, Michigan
Current Conditions -  °F | °C
As of 9:33 AM on Saturday 25 Oct 2014 (Local Time) from KERY Reporting Station
Clear Clear  
Wind Chill: 45°   Ceiling: Unl
Heat Index: 50°   Visibility: 10mi
Dew Point: 45°   Wind: 13mph
Humidity: 82%   Direction: 250°WSW
Pressure: 29.65"   Gusts: 23mph
Location:  46.12°N, 85.57°W
Report Text: KERY 251333Z AUTO 25011G20KT 10SM CLR 10/07 A2965 RMK AO2 T00990070
Loading
Personal Weather Stations






























Interactive Weather Map
Tropical Storm Tracking
New forecast layout! Learn more

10-Day Weather Forecast

Advertisements
Track Severe Weather on mobile